Time;durP1;ratioP1;P1;durP2;ratioP2;P2;SDS_P1;SDS_P2;PMS_P1;PMS_P2;Temp;Humidity;BMP_temperature;BMP_pressure;BME280_temperature;BME280_humidity;BME280_pressure;Samples;Min_cycle;Max_cycle;Signal;HPM_P1;HPM_P2
2021/04/16 00:00:33;;;;;;;13.00;9.02;;;8.10;63.40;;;;;;5048442;28;20055;-81
2021/04/16 00:02:59;;;;;;;12.55;8.57;;;8.00;63.60;;;;;;5049648;28;20477;-82
2021/04/16 00:05:26;;;;;;;15.88;8.70;;;8.00;63.60;;;;;;5048652;28;20502;-83
2021/04/16 00:07:51;;;;;;;16.60;9.48;;;8.00;63.70;;;;;;5049658;28;20055;-82
2021/04/16 00:10:27;;;;;;;16.33;8.52;;;8.00;63.80;;;;;;5048196;28;20472;-82
2021/04/16 00:12:53;;;;;;;16.40;9.32;;;8.10;64.00;;;;;;5047783;28;20029;-82
2021/04/16 00:15:23;;;;;;;14.38;8.13;;;8.20;64.00;;;;;;5048383;28;20385;-84
2021/04/16 00:17:49;;;;;;;13.95;8.85;;;8.30;64.10;;;;;;5048304;28;20032;-84
2021/04/16 00:20:19;;;;;;;15.07;8.63;;;8.40;64.10;;;;;;5048264;28;20032;-84
2021/04/16 00:22:44;;;;;;;13.82;8.18;;;8.50;64.10;;;;;;5049554;28;20052;-82
2021/04/16 00:25:15;;;;;;;16.10;8.43;;;8.60;64.00;;;;;;5031722;28;20114;-83
2021/04/16 00:27:41;;;;;;;13.88;8.77;;;8.60;64.00;;;;;;5049457;28;20460;-83
2021/04/16 00:30:08;;;;;;;12.68;8.05;;;8.70;63.90;;;;;;5049368;28;20027;-83
2021/04/16 00:32:35;;;;;;;16.40;9.48;;;8.80;64.00;;;;;;5049456;28;20100;-84
2021/04/16 00:35:01;;;;;;;14.63;9.02;;;8.80;63.80;;;;;;5048127;28;20159;-83
2021/04/16 00:37:27;;;;;;;17.30;8.35;;;8.90;63.60;;;;;;5031453;28;20093;-83
2021/04/16 00:39:53;;;;;;;14.27;9.02;;;8.90;63.50;;;;;;5047801;28;20131;-84
2021/04/16 00:42:19;;;;;;;11.27;7.43;;;9.00;63.40;;;;;;5049290;28;20036;-83
2021/04/16 00:44:45;;;;;;;11.10;7.63;;;8.90;63.40;;;;;;5014917;28;20419;-83
2021/04/16 00:47:15;;;;;;;11.60;7.40;;;8.90;63.60;;;;;;5047794;28;20110;-83
2021/04/16 00:49:44;;;;;;;15.45;8.18;;;8.80;63.90;;;;;;5047501;28;20066;-83
2021/04/16 00:52:11;;;;;;;14.20;8.23;;;8.70;64.00;;;;;;5047707;28;20032;-84
2021/04/16 00:54:40;;;;;;;12.75;8.13;;;8.70;64.10;;;;;;5030988;28;20040;-83
2021/04/16 00:57:10;;;;;;;13.55;8.68;;;8.70;64.30;;;;;;5047831;28;20063;-83
2021/04/16 00:59:40;;;;;;;14.90;8.45;;;8.70;64.40;;;;;;5048717;28;20052;-83
2021/04/16 01:02:07;;;;;;;12.23;8.48;;;8.70;64.40;;;;;;5047392;28;20036;-85
2021/04/16 01:04:33;;;;;;;13.65;8.55;;;8.60;64.40;;;;;;5047352;28;20055;-82
2021/04/16 01:07:02;;;;;;;19.63;8.55;;;8.60;65.00;;;;;;5030804;28;20029;-84
2021/04/16 01:09:29;;;;;;;13.13;8.57;;;8.50;64.60;;;;;;5047259;28;20108;-85
2021/04/16 01:11:55;;;;;;;11.38;8.13;;;8.50;64.60;;;;;;5030784;28;20368;-83
2021/04/16 01:14:22;;;;;;;14.40;8.70;;;8.40;64.60;;;;;;5047370;28;20036;-84
2021/04/16 01:16:47;;;;;;;16.52;9.52;;;8.30;64.50;;;;;;5014467;28;20044;-82
2021/04/16 01:19:45;;;;;;;13.02;8.52;;;8.30;64.70;;;;;;5030539;28;20487;-83
2021/04/16 01:22:17;;;;;;;17.23;10.15;;;8.10;64.70;;;;;;5047391;28;20037;-84
2021/04/16 01:24:43;;;;;;;13.85;9.50;;;8.00;64.60;;;;;;5047363;28;20353;-84
2021/04/16 01:27:12;;;;;;;16.77;9.57;;;8.00;64.70;;;;;;5047195;28;20028;-84
2021/04/16 01:29:44;;;;;;;14.13;9.32;;;7.90;64.90;;;;;;5030934;28;20111;-83
2021/04/16 01:32:32;;;;;;;14.75;10.10;;;7.80;65.10;;;;;;5047090;28;20491;-83
2021/04/16 01:34:58;;;;;;;18.85;9.07;;;7.70;65.30;;;;;;5046563;28;20120;-83
2021/04/16 01:37:27;;;;;;;17.98;10.48;;;7.60;65.30;;;;;;5030003;28;20187;-84
2021/04/16 01:39:53;;;;;;;14.85;9.30;;;7.60;65.60;;;;;;5046895;28;20518;-84
2021/04/16 01:42:19;;;;;;;14.23;9.65;;;7.50;65.70;;;;;;5030072;28;20037;-84
2021/04/16 01:44:46;;;;;;;15.40;10.07;;;7.40;65.80;;;;;;5046813;28;20029;-85
2021/04/16 01:47:13;;;;;;;18.42;10.38;;;7.30;66.00;;;;;;5046822;28;20025;-83
2021/04/16 01:49:42;;;;;;;14.82;9.25;;;7.20;66.20;;;;;;5046704;28;20476;-83
2021/04/16 01:52:12;;;;;;;12.47;8.53;;;7.20;66.50;;;;;;5046770;28;20040;-85
2021/04/16 01:54:45;;;;;;;11.77;9.10;;;7.10;66.50;;;;;;5048111;28;20494;-82
2021/04/16 01:57:33;;;;;;;12.02;8.57;;;7.00;66.70;;;;;;5047974;28;20032;-84
2021/04/16 02:00:00;;;;;;;15.73;10.48;;;7.00;66.70;;;;;;5046588;28;20029;-85
2021/04/16 02:02:32;;;;;;;13.60;9.63;;;6.90;66.60;;;;;;5046510;28;20124;-83
2021/04/16 02:04:59;;;;;;;12.85;9.35;;;6.80;66.90;;;;;;5046675;28;20025;-84
2021/04/16 02:07:28;;;;;;;14.70;9.38;;;6.70;67.00;;;;;;5047670;28;20035;-84
2021/04/16 02:09:54;;;;;;;;;;;6.60;67.30;;;;;;5030399;28;20013;-85
2021/04/16 02:12:22;;;;;;;17.42;10.40;;;6.60;66.90;;;;;;5046645;28;19962;-84
2021/04/16 02:14:49;;;;;;;12.05;9.13;;;6.60;66.80;;;;;;5046487;28;20375;-83
2021/04/16 02:17:20;;;;;;;13.63;9.15;;;6.50;67.00;;;;;;5046583;28;20104;-84
2021/04/16 02:19:46;;;;;;;14.73;9.90;;;6.50;67.40;;;;;;5046430;28;20392;-83
2021/04/16 02:22:18;;;;;;;14.70;9.63;;;6.40;67.40;;;;;;5029672;28;20539;-85
2021/04/16 02:24:44;;;;;;;14.43;9.02;;;6.40;67.70;;;;;;5046585;28;20021;-83
2021/04/16 02:27:11;;;;;;;13.85;10.60;;;6.30;67.60;;;;;;5046378;28;20033;-83
2021/04/16 02:29:37;;;;;;;14.23;8.73;;;6.30;67.80;;;;;;5046203;28;20033;-85
2021/04/16 02:32:05;;;;;;;14.57;9.23;;;6.20;67.90;;;;;;5029994;28;20025;-84
2021/04/16 02:34:30;;;;;;;16.83;9.68;;;6.20;68.20;;;;;;5047112;28;20461;-83
2021/04/16 02:37:03;;;;;;;15.48;9.73;;;6.20;68.30;;;;;;5050110;28;20056;-82
2021/04/16 02:39:30;;;;;;;14.07;9.85;;;6.20;68.50;;;;;;5051356;28;20044;-85
2021/04/16 02:41:56;;;;;;;13.68;9.88;;;6.10;68.30;;;;;;5050177;28;20029;-83
2021/04/16 02:44:23;;;;;;;15.77;10.02;;;6.10;68.40;;;;;;5033476;28;20209;-83
2021/04/16 02:46:50;;;;;;;17.25;10.65;;;6.10;68.70;;;;;;5050111;28;20060;-84
2021/04/16 02:49:16;;;;;;;15.93;10.30;;;6.10;68.70;;;;;;5033372;28;20029;-83
2021/04/16 02:51:42;;;;;;;18.95;10.88;;;6.10;68.80;;;;;;5049923;28;20028;-84
2021/04/16 02:54:08;;;;;;;18.75;9.80;;;6.00;68.90;;;;;;5033697;28;20033;-83
2021/04/16 02:56:34;;;;;;;15.38;9.75;;;6.00;69.00;;;;;;5051284;28;20403;-84
2021/04/16 02:59:00;;;;;;;15.40;9.80;;;6.00;69.10;;;;;;5049967;28;20119;-84
2021/04/16 03:01:27;;;;;;;15.77;10.27;;;6.00;69.30;;;;;;5051033;28;20116;-84
2021/04/16 03:03:54;;;;;;;17.10;10.57;;;5.90;69.40;;;;;;5049924;28;20406;-85
2021/04/16 03:06:21;;;;;;;14.80;10.23;;;5.90;69.50;;;;;;5049875;28;20037;-83
2021/04/16 03:08:55;;;;;;;13.02;9.75;;;5.90;69.50;;;;;;5033562;28;20407;-85
2021/04/16 03:11:21;;;;;;;14.90;9.77;;;5.90;69.60;;;;;;5051157;28;20021;-84
2021/04/16 03:13:47;;;;;;;12.93;8.60;;;6.00;69.50;;;;;;5033165;28;20029;-84
2021/04/16 03:16:13;;;;;;;12.98;8.65;;;5.90;69.50;;;;;;5033038;28;20037;-86
2021/04/16 03:18:39;;;;;;;11.10;8.75;;;5.90;69.60;;;;;;5033024;28;20124;-84
2021/04/16 03:21:05;;;;;;;16.30;9.25;;;5.80;69.70;;;;;;5050915;28;20104;-83
2021/04/16 03:23:30;;;;;;;12.32;8.85;;;5.70;69.90;;;;;;5050793;28;20438;-85
2021/04/16 03:25:56;;;;;;;13.52;9.43;;;5.70;70.10;;;;;;5049421;28;20543;-83
2021/04/16 03:28:22;;;;;;;18.17;10.38;;;5.70;70.20;;;;;;5050863;28;20384;-83
2021/04/16 03:30:50;;;;;;;17.20;9.60;;;5.60;70.30;;;;;;5032781;28;20025;-85
2021/04/16 03:33:16;;;;;;;17.30;10.93;;;5.60;70.40;;;;;;5050549;28;20056;-83
2021/04/16 03:35:41;;;;;;;17.92;10.05;;;5.60;70.40;;;;;;5032873;28;20065;-84
2021/04/16 03:38:07;;;;;;;14.30;9.30;;;5.60;70.50;;;;;;5049018;28;20052;-84
2021/04/16 03:40:33;;;;;;;14.05;9.10;;;5.60;70.50;;;;;;5032682;28;20044;-83
2021/04/16 03:42:59;;;;;;;16.05;9.52;;;5.50;70.60;;;;;;5032643;28;20399;-85
2021/04/16 03:45:26;;;;;;;17.08;9.55;;;5.50;70.60;;;;;;5049684;28;20025;-85
2021/04/16 03:47:52;;;;;;;16.80;10.95;;;5.50;70.70;;;;;;5048539;28;20032;-83
2021/04/16 03:50:25;;;;;;;19.58;9.85;;;5.40;70.90;;;;;;5049137;28;20375;-84
2021/04/16 03:52:51;;;;;;;17.27;10.52;;;5.40;71.00;;;;;;5048741;28;20468;-85
2021/04/16 03:55:20;;;;;;;18.70;12.07;;;5.40;71.00;;;;;;5048760;28;20033;-84
2021/04/16 03:57:45;;;;;;;16.95;10.52;;;5.30;71.00;;;;;;5048448;28;20080;-84
2021/04/16 04:00:14;;;;;;;15.10;9.65;;;5.30;71.10;;;;;;5048781;28;20025;-86
2021/04/16 04:02:39;;;;;;;14.30;9.32;;;5.30;71.30;;;;;;5048880;28;20056;-84
2021/04/16 04:05:06;;;;;;;14.48;8.93;;;5.20;71.30;;;;;;5049408;28;20102;-83
2021/04/16 04:07:32;;;;;;;12.82;9.70;;;5.20;71.40;;;;;;5049844;28;20468;-84
2021/04/16 04:09:58;;;;;;;12.80;8.30;;;5.20;71.50;;;;;;5048821;28;20075;-83
2021/04/16 04:12:24;;;;;;;13.15;8.98;;;5.20;71.50;;;;;;5048602;28;20040;-85
2021/04/16 04:14:49;;;;;;;14.07;9.10;;;5.10;71.50;;;;;;5032062;28;20633;-84
2021/04/16 04:17:30;;;;;;;13.35;8.82;;;5.10;71.50;;;;;;5015556;28;20032;-85
2021/04/16 04:19:56;;;;;;;13.40;9.32;;;5.10;71.60;;;;;;5048589;28;20028;-83
2021/04/16 04:22:22;;;;;;;15.82;9.57;;;5.10;71.50;;;;;;5048434;28;20021;-84
2021/04/16 04:24:48;;;;;;;16.48;9.25;;;5.00;71.60;;;;;;5048491;28;20071;-83
2021/04/16 04:27:15;;;;;;;16.25;9.38;;;5.00;71.70;;;;;;5031751;28;20029;-83
2021/04/16 04:29:41;;;;;;;13.27;9.27;;;5.00;71.70;;;;;;5049681;28;20036;-84
2021/04/16 04:32:07;;;;;;;15.82;9.90;;;5.00;71.80;;;;;;5048257;28;20426;-85
2021/04/16 04:34:34;;;;;;;15.57;9.68;;;5.00;71.90;;;;;;5048283;28;20043;-84
2021/04/16 04:37:01;;;;;;;16.30;9.85;;;4.90;72.00;;;;;;5047662;28;20136;-86
2021/04/16 04:39:29;;;;;;;16.33;10.68;;;4.90;72.20;;;;;;5049460;28;20032;-84
2021/04/16 04:41:55;;;;;;;14.15;9.13;;;4.90;72.30;;;;;;5031274;28;20376;-84
2021/04/16 04:44:21;;;;;;;13.93;9.35;;;4.90;72.40;;;;;;5048013;28;20035;-85
2021/04/16 04:46:47;;;;;;;14.68;8.98;;;4.90;72.40;;;;;;5048135;28;20107;-85
2021/04/16 04:49:15;;;;;;;13.95;8.38;;;4.90;72.50;;;;;;5047808;28;20560;-84
2021/04/16 04:51:41;;;;;;;14.25;8.38;;;4.90;72.50;;;;;;5031501;28;20113;-83
2021/04/16 04:54:08;;;;;;;16.33;9.10;;;5.00;72.60;;;;;;5014748;28;20032;-83
2021/04/16 04:56:34;;;;;;;17.63;9.13;;;4.90;72.60;;;;;;5049282;28;20025;-84
2021/04/16 04:59:00;;;;;;;15.65;9.25;;;5.00;72.70;;;;;;5030494;28;20083;-84
2021/04/16 05:01:26;;;;;;;15.05;8.60;;;4.90;72.60;;;;;;5031099;28;20033;-83
2021/04/16 05:03:52;;;;;;;17.20;8.48;;;4.90;72.70;;;;;;5031001;28;20035;-84
2021/04/16 05:06:17;;;;;;;14.75;8.88;;;4.90;72.80;;;;;;5047535;28;20475;-83
2021/04/16 05:08:43;;;;;;;15.43;8.48;;;4.90;72.90;;;;;;5047433;28;20029;-85
2021/04/16 05:11:11;;;;;;;15.05;8.98;;;4.80;73.00;;;;;;5031004;28;20055;-84
2021/04/16 05:13:37;;;;;;;15.30;8.90;;;4.80;73.10;;;;;;5031174;28;20025;-83
2021/04/16 05:16:03;;;;;;;12.60;8.35;;;4.80;73.20;;;;;;5047385;28;20025;-83
2021/04/16 05:18:29;;;;;;;17.92;8.90;;;4.80;73.20;;;;;;5030901;28;20391;-84
2021/04/16 05:20:54;;;;;;;13.13;8.07;;;4.90;73.30;;;;;;5014271;28;20025;-84
2021/04/16 05:23:20;;;;;;;12.60;8.25;;;4.90;73.70;;;;;;5014176;28;20025;-83
2021/04/16 05:25:46;;;;;;;15.80;8.75;;;5.00;73.30;;;;;;5048914;28;20082;-84
2021/04/16 05:28:12;;;;;;;14.75;8.57;;;5.00;73.30;;;;;;5030740;28;20499;-84
2021/04/16 05:30:38;;;;;;;12.23;7.45;;;5.00;73.30;;;;;;5047377;28;20032;-84
2021/04/16 05:33:03;;;;;;;19.60;8.38;;;5.00;73.30;;;;;;5046974;28;20074;-84
2021/04/16 05:35:29;;;;;;;11.25;7.40;;;5.10;73.30;;;;;;5047026;28;20365;-83
2021/04/16 05:37:58;;;;;;;17.13;9.00;;;5.10;73.20;;;;;;5046413;28;20560;-82
2021/04/16 05:40:28;;;;;;;13.00;7.10;;;5.10;73.10;;;;;;5047920;28;20055;-82
2021/04/16 05:42:53;;;;;;;;;;;5.20;73.20;;;;;;5030534;28;20037;-82
2021/04/16 05:45:20;;;;;;;11.98;7.43;;;5.20;72.90;;;;;;5047716;28;19909;-82
2021/04/16 05:47:46;;;;;;;11.45;7.85;;;5.20;72.70;;;;;;5029882;28;20032;-83
2021/04/16 05:50:13;;;;;;;15.23;8.18;;;5.20;72.80;;;;;;5013576;28;20025;-81
2021/04/16 05:52:39;;;;;;;14.80;8.88;;;5.20;72.90;;;;;;5046642;28;20029;-82
2021/04/16 05:55:05;;;;;;;18.90;7.97;;;5.20;73.10;;;;;;5013502;28;20075;-83
2021/04/16 05:57:31;;;;;;;16.50;7.90;;;5.20;73.30;;;;;;5013807;28;20554;-82
2021/04/16 05:59:56;;;;;;;16.10;8.27;;;5.30;73.50;;;;;;5029866;28;20037;-83
2021/04/16 06:02:32;;;;;;;13.15;8.52;;;5.40;73.50;;;;;;5029584;28;20494;-82
2021/04/16 06:04:59;;;;;;;12.25;7.07;;;5.40;73.70;;;;;;5046828;28;20387;-82
2021/04/16 06:07:26;;;;;;;15.95;8.38;;;5.50;73.70;;;;;;5029616;28;20036;-83
2021/04/16 06:09:53;;;;;;;19.45;7.43;;;5.60;73.80;;;;;;5029280;28;20029;-82
2021/04/16 06:12:20;;;;;;;13.70;7.13;;;5.70;73.90;;;;;;5047733;28;20428;-82
2021/04/16 06:14:46;;;;;;;18.52;7.05;;;5.80;73.80;;;;;;5046444;28;20052;-82
2021/04/16 06:17:14;;;;;;;18.27;8.35;;;5.90;73.60;;;;;;5046190;28;20361;-83
2021/04/16 06:19:44;;;;;;;16.13;7.93;;;5.90;73.50;;;;;;5030282;28;20025;-83
2021/04/16 06:22:11;;;;;;;15.27;7.20;;;6.00;73.50;;;;;;5046186;28;20486;-82
2021/04/16 06:24:37;;;;;;;13.60;5.93;;;6.00;73.40;;;;;;5046767;28;20071;-83
2021/04/16 06:27:04;;;;;;;17.00;6.32;;;6.10;73.40;;;;;;5046535;28;20417;-85
2021/04/16 06:29:30;;;;;;;13.23;7.07;;;6.00;73.40;;;;;;5030043;28;20175;-83
2021/04/16 06:31:57;;;;;;;13.98;6.78;;;6.00;73.70;;;;;;5030734;28;20123;-84
2021/04/16 06:34:23;;;;;;;16.77;8.15;;;6.10;73.90;;;;;;5046443;28;20029;-85
2021/04/16 06:36:49;;;;;;;17.33;7.18;;;6.20;73.80;;;;;;5030015;28;20060;-83
2021/04/16 06:39:16;;;;;;;10.43;6.03;;;6.30;73.90;;;;;;5046404;28;20106;-84
2021/04/16 06:41:45;;;;;;;10.27;6.35;;;6.50;73.90;;;;;;5047470;28;20513;-84
2021/04/16 06:44:16;;;;;;;;;;;6.50;73.90;;;;;;5046873;28;20083;-84
2021/04/16 06:46:45;;;;;;;13.25;6.00;;;6.60;73.80;;;;;;5045980;28;19915;-83
2021/04/16 06:49:20;;;;;;;14.10;6.93;;;6.80;73.80;;;;;;5046212;28;20032;-83
2021/04/16 06:52:01;;;;;;;30.52;7.50;;;6.90;74.00;;;;;;5046100;28;20035;-82
2021/04/16 06:54:37;;;;;;;27.85;7.38;;;7.00;74.10;;;;;;5047302;28;20020;-84
2021/04/16 06:57:05;;;;;;;23.55;7.53;;;7.20;74.10;;;;;;5046531;28;20498;-84
2021/04/16 06:59:33;;;;;;;15.55;9.38;;;7.40;74.20;;;;;;5030229;28;20029;-84
2021/04/16 07:02:02;;;;;;;18.40;7.47;;;7.70;74.30;;;;;;5047130;28;20033;-83
2021/04/16 07:04:48;;;;;;;14.55;7.88;;;7.90;74.40;;;;;;5046394;28;20052;-83
2021/04/16 07:07:26;;;;;;;16.67;7.53;;;8.40;75.90;;;;;;5045590;28;20025;-84
2021/04/16 07:10:01;;;;;;;10.20;5.93;;;9.70;76.70;;;;;;5046162;28;20025;-83
2021/04/16 07:12:27;;;;;;;22.08;6.82;;;11.20;73.50;;;;;;5046167;28;20021;-84
2021/04/16 07:14:56;;;;;;;9.57;5.75;;;11.90;70.90;;;;;;5029104;28;20029;-85
2021/04/16 07:17:25;;;;;;;18.98;6.60;;;12.30;68.90;;;;;;5047086;28;20116;-83
2021/04/16 07:19:52;;;;;;;7.68;5.70;;;12.50;67.50;;;;;;5046835;28;20104;-83
2021/04/16 07:22:25;;;;;;;9.38;5.25;;;12.40;66.90;;;;;;5049488;28;20090;-86
2021/04/16 07:24:53;;;;;;;15.27;6.20;;;12.40;66.60;;;;;;5049770;28;20487;-84
2021/04/16 07:27:19;;;;;;;8.95;5.07;;;12.50;66.20;;;;;;5050059;28;20106;-85
2021/04/16 07:29:55;;;;;;;9.98;5.22;;;12.50;66.00;;;;;;5048828;28;20028;-85
2021/04/16 07:32:29;;;;;;;10.25;5.35;;;12.70;66.20;;;;;;5049597;28;20029;-85
2021/04/16 07:35:16;;;;;;;9.65;5.25;;;13.20;65.90;;;;;;5051397;28;20503;-85
2021/04/16 07:37:44;;;;;;;7.70;4.07;;;13.70;65.00;;;;;;5050118;28;20056;-85
2021/04/16 07:40:29;;;;;;;8.45;3.78;;;14.20;64.30;;;;;;5048902;28;20029;-85
2021/04/16 07:42:55;;;;;;;10.05;4.72;;;14.50;63.20;;;;;;5048787;28;20029;-86
2021/04/16 07:45:36;;;;;;;14.93;4.03;;;14.80;63.10;;;;;;5048061;28;20021;-82
2021/04/16 07:48:16;;;;;;;12.98;4.60;;;15.20;62.40;;;;;;5048052;28;20365;-82
2021/04/16 07:50:56;;;;;;;8.30;3.80;;;15.60;61.30;;;;;;5048388;28;20098;-83
2021/04/16 07:53:37;;;;;;;16.23;4.18;;;15.70;60.50;;;;;;5049505;28;20067;-86
2021/04/16 07:56:16;;;;;;;13.55;4.97;;;15.70;60.20;;;;;;5049598;28;20053;-85
2021/04/16 07:58:47;;;;;;;12.55;4.22;;;15.70;60.10;;;;;;5047783;28;20082;-83
2021/04/16 08:01:25;;;;;;;12.20;3.78;;;15.70;59.90;;;;;;5048179;28;20029;-84
2021/04/16 08:04:01;;;;;;;12.32;3.60;;;15.70;59.40;;;;;;5048535;28;20029;-84
2021/04/16 08:06:37;;;;;;;12.70;3.90;;;15.60;59.10;;;;;;5049456;28;20021;-84
2021/04/16 08:09:12;;;;;;;8.10;3.78;;;15.60;59.10;;;;;;5050578;28;20013;-84
2021/04/16 08:11:39;;;;;;;18.58;3.72;;;15.70;59.30;;;;;;5048754;28;20025;-84
2021/04/16 08:14:10;;;;;;;9.27;3.80;;;16.00;59.40;;;;;;5051310;28;20060;-85
2021/04/16 08:16:41;;;;;;;8.80;3.45;;;16.30;58.80;;;;;;5048093;28;20369;-85
2021/04/16 08:19:07;;;;;;;10.32;3.55;;;16.70;58.40;;;;;;5049863;28;20025;-83
2021/04/16 08:21:44;;;;;;;6.40;3.38;;;17.10;57.90;;;;;;5050137;28;20312;-84
2021/04/16 08:24:48;;;;;;;9.93;4.00;;;17.70;57.50;;;;;;5048665;28;20406;-83
2021/04/16 08:27:32;;;;;;;10.35;3.70;;;18.50;56.80;;;;;;5048177;28;20386;-85
2021/04/16 08:30:14;;;;;;;11.43;3.13;;;19.20;56.10;;;;;;5048499;28;20031;-85
2021/04/16 08:32:55;;;;;;;8.45;3.58;;;19.80;55.50;;;;;;5048653;28;20100;-84
2021/04/16 08:35:33;;;;;;;10.48;3.38;;;20.50;54.70;;;;;;5048086;28;20068;-85
2021/04/16 08:38:08;;;;;;;8.35;2.80;;;21.00;52.70;;;;;;5048455;28;20540;-83
2021/04/16 08:40:40;;;;;;;9.02;3.53;;;21.40;51.70;;;;;;5047094;28;20463;-86
2021/04/16 08:43:13;;;;;;;7.15;3.50;;;21.90;51.90;;;;;;5048173;28;20028;-86
2021/04/16 08:45:40;;;;;;;6.38;2.97;;;22.50;50.70;;;;;;5047304;28;20025;-85
2021/04/16 08:48:15;;;;;;;7.25;3.17;;;23.10;49.40;;;;;;5049309;28;20056;-84
2021/04/16 08:50:50;;;;;;;6.22;2.80;;;23.50;48.00;;;;;;5046817;28;20395;-86
2021/04/16 08:53:16;;;;;;;7.25;2.60;;;23.80;47.50;;;;;;5045939;28;20120;-85
2021/04/16 08:55:48;;;;;;;8.77;3.20;;;24.30;47.30;;;;;;5029988;28;20128;-84
2021/04/16 08:58:32;;;;;;;4.75;2.30;;;24.90;45.60;;;;;;5047744;28;20028;-86
2021/04/16 09:01:20;;;;;;;4.93;2.88;;;25.20;44.70;;;;;;5048454;28;20405;-85
2021/04/16 09:03:53;;;;;;;9.32;2.88;;;25.60;44.30;;;;;;5047318;28;20361;-86
2021/04/16 09:06:47;;;;;;;8.85;2.70;;;25.80;43.60;;;;;;5048200;28;20024;-85
2021/04/16 09:09:47;;;;;;;9.40;2.78;;;26.00;42.70;;;;;;5048499;28;20017;-83
2021/04/16 09:12:38;;;;;;;5.80;2.50;;;26.30;42.10;;;;;;5048656;28;20037;-83
2021/04/16 09:15:24;;;;;;;4.82;2.70;;;26.50;41.60;;;;;;5048089;28;20029;-85
2021/04/16 09:17:52;;;;;;;4.50;2.30;;;26.80;41.20;;;;;;5048671;28;20069;-88
2021/04/16 09:20:19;;;;;;;7.13;2.90;;;26.90;40.00;;;;;;5046601;28;20360;-86
2021/04/16 09:22:45;;;;;;;8.27;2.60;;;27.00;39.60;;;;;;5046778;28;20071;-84
2021/04/16 09:25:47;;;;;;;4.55;2.50;;;27.20;39.50;;;;;;5048142;28;20051;-82
2021/04/16 09:28:22;;;;;;;8.20;3.53;;;27.30;38.50;;;;;;5047656;28;20083;-84
2021/04/16 09:30:50;;;;;;;7.43;2.55;;;27.00;38.00;;;;;;5048814;28;20044;-81
2021/04/16 09:33:35;;;;;;;4.72;2.50;;;26.90;38.00;;;;;;5046916;28;20029;-82
2021/04/16 09:36:02;;;;;;;9.90;2.65;;;26.70;37.20;;;;;;5045920;28;20024;-82
2021/04/16 09:38:53;;;;;;;3.95;2.05;;;26.20;37.20;;;;;;5045600;28;20053;-80
2021/04/16 09:41:19;;;;;;;4.28;2.08;;;25.60;37.50;;;;;;5046783;28;20025;-81
2021/04/16 09:43:49;;;;;;;5.85;2.88;;;25.50;37.60;;;;;;5047085;28;20029;-81
2021/04/16 09:46:33;;;;;;;5.85;2.47;;;25.60;37.40;;;;;;5046092;28;20028;-81
2021/04/16 09:49:09;;;;;;;7.78;3.10;;;26.20;37.30;;;;;;5045710;28;20533;-82
2021/04/16 09:51:46;;;;;;;3.67;1.73;;;26.50;37.10;;;;;;5045348;28;20040;-81
2021/04/16 09:54:12;;;;;;;3.95;2.00;;;26.80;36.70;;;;;;5047240;28;20158;-82
2021/04/16 09:56:59;;;;;;;5.22;2.17;;;27.20;36.90;;;;;;5045631;28;20130;-81
2021/04/16 09:59:29;;;;;;;4.60;2.63;;;27.10;36.40;;;;;;5045231;28;20032;-83
2021/04/16 10:02:31;;;;;;;8.27;2.65;;;26.90;35.80;;;;;;5047134;28;20036;-83
2021/04/16 10:05:29;;;;;;;5.70;2.30;;;25.90;35.20;;;;;;5045779;28;20491;-81
2021/04/16 10:07:59;;;;;;;10.10;2.30;;;24.40;35.60;;;;;;5045594;28;20037;-81
2021/04/16 10:10:44;;;;;;;5.03;2.22;;;24.10;35.90;;;;;;5047536;28;20025;-84
2021/04/16 10:13:19;;;;;;;4.88;2.42;;;24.10;36.80;;;;;;5045456;28;20028;-80
2021/04/16 10:15:48;;;;;;;8.75;4.43;;;24.80;36.80;;;;;;5045353;28;20127;-83
2021/04/16 10:18:15;;;;;;;3.85;1.83;;;25.50;36.40;;;;;;5045134;28;20119;-83
2021/04/16 10:21:11;;;;;;;3.30;1.63;;;25.10;35.50;;;;;;5045350;28;20479;-83
2021/04/16 10:23:42;;;;;;;3.20;1.80;;;25.00;35.70;;;;;;5047174;28;20079;-82
2021/04/16 12:41:15;;;;;;;5.32;2.63;;;20.00;37.20;;;;;;5049399;28;20428;-79
2021/04/16 12:43:44;;;;;;;8.32;2.45;;;19.60;37.80;;;;;;5049219;28;20020;-84
2021/04/16 12:46:13;;;;;;;9.60;2.80;;;19.30;38.20;;;;;;5031126;28;20119;-87
2021/04/16 12:48:39;;;;;;;7.68;2.47;;;19.10;38.40;;;;;;5047661;28;20090;-84
2021/04/16 12:51:04;;;;;;;7.68;2.42;;;18.90;38.70;;;;;;5014371;28;20511;-87
2021/04/16 12:53:30;;;;;;;4.88;2.20;;;18.80;39.00;;;;;;5030657;28;20612;-84
2021/04/16 12:55:56;;;;;;;5.35;2.83;;;18.60;39.20;;;;;;5030900;28;20037;-82
2021/04/16 12:58:27;;;;;;;6.50;2.70;;;18.40;39.50;;;;;;5048082;28;20029;-84
2021/04/16 13:00:54;;;;;;;4.68;2.58;;;18.30;39.80;;;;;;5049296;28;20112;-85
2021/04/16 13:03:30;;;;;;;6.30;2.65;;;18.20;39.90;;;;;;5014699;28;20037;-85
2021/04/16 13:05:57;;;;;;;9.52;2.65;;;18.20;40.20;;;;;;5048467;28;20017;-85
2021/04/16 13:08:23;;;;;;;6.72;3.15;;;18.50;40.60;;;;;;5032017;28;20025;-83
2021/04/16 13:10:48;;;;;;;7.95;2.85;;;18.80;40.40;;;;;;5015564;28;20601;-84
2021/04/16 13:13:14;;;;;;;6.28;2.72;;;18.90;39.90;;;;;;5050433;28;20021;-83
2021/04/16 13:15:40;;;;;;;15.18;3.97;;;18.90;39.80;;;;;;5048890;28;20108;-85
2021/04/16 13:18:13;;;;;;;8.38;2.67;;;18.70;39.80;;;;;;5031692;28;20513;-86
2021/04/16 13:20:42;;;;;;;9.10;3.15;;;18.40;39.90;;;;;;5048692;28;20024;-83
2021/04/16 13:23:07;;;;;;;12.80;3.38;;;18.10;40.20;;;;;;5048309;28;20437;-83
2021/04/16 13:25:33;;;;;;;6.82;2.78;;;17.80;40.50;;;;;;5031922;28;20029;-82
2021/04/16 13:27:59;;;;;;;5.47;3.05;;;17.60;40.80;;;;;;5032638;28;20036;-84
2021/04/16 13:30:28;;;;;;;9.75;2.50;;;17.50;40.90;;;;;;5030923;28;20116;-85
2021/04/16 13:33:00;;;;;;;13.63;5.80;;;17.30;41.30;;;;;;5047183;28;20095;-82
2021/04/16 13:35:35;;;;;;;6.70;3.35;;;17.30;42.30;;;;;;5048138;28;20268;-84
2021/04/16 13:38:04;;;;;;;7.18;3.25;;;17.30;42.00;;;;;;5049190;28;20120;-84
2021/04/16 13:40:32;;;;;;;5.00;3.05;;;17.40;42.20;;;;;;5048243;28;20025;-83
2021/04/16 13:42:58;;;;;;;9.82;2.60;;;17.50;42.20;;;;;;5045676;28;20166;-83
2021/04/16 13:45:24;;;;;;;6.28;2.58;;;17.80;42.20;;;;;;5047404;28;20021;-85
2021/04/16 13:47:50;;;;;;;10.95;2.58;;;17.90;42.10;;;;;;5048793;28;20021;-82
2021/04/16 13:50:18;;;;;;;4.53;2.10;;;18.10;42.60;;;;;;5031660;28;20579;-82
2021/04/16 13:52:44;;;;;;;4.28;2.25;;;18.20;42.10;;;;;;5047983;28;20024;-83
2021/04/16 13:55:12;;;;;;;4.70;2.47;;;18.40;42.10;;;;;;5046449;28;20040;-83
2021/04/16 13:57:39;;;;;;;6.72;2.28;;;18.50;41.70;;;;;;5048417;28;20094;-81
2021/04/16 14:00:07;;;;;;;8.85;2.80;;;18.60;41.30;;;;;;5030387;28;20033;-83
2021/04/16 14:02:37;;;;;;;4.97;1.90;;;18.50;40.90;;;;;;5030274;28;20415;-84
2021/04/16 14:05:06;;;;;;;6.20;2.10;;;18.30;40.80;;;;;;5047040;28;20029;-84
2021/04/16 14:07:32;;;;;;;5.35;2.22;;;18.10;40.90;;;;;;5045377;28;20112;-84
2021/04/16 14:09:58;;;;;;;8.32;1.98;;;18.10;40.90;;;;;;5046524;28;20116;-85
2021/04/16 14:12:24;;;;;;;5.28;2.22;;;18.00;40.80;;;;;;5014239;28;20096;-84
2021/04/16 14:14:49;;;;;;;5.18;2.00;;;17.90;40.60;;;;;;5013622;28;20037;-83
2021/04/16 14:17:33;;;;;;;7.22;2.35;;;17.80;40.80;;;;;;5047685;28;20043;-83
2021/04/16 14:20:02;;;;;;;6.07;1.80;;;17.80;40.90;;;;;;5046650;28;20422;-83
2021/04/16 14:22:52;;;;;;;4.70;2.30;;;17.90;41.00;;;;;;5047029;28;20044;-83
2021/04/16 14:25:31;;;;;;;4.18;2.10;;;18.00;40.80;;;;;;5047126;28;20387;-83
2021/04/16 14:27:57;;;;;;;8.00;2.30;;;18.10;40.70;;;;;;5046466;28;20032;-83
2021/04/16 14:30:28;;;;;;;11.27;2.40;;;18.00;40.50;;;;;;5015394;28;20029;-83
2021/04/16 14:32:57;;;;;;;4.55;1.95;;;18.00;40.50;;;;;;5050861;28;20491;-83
2021/04/16 14:35:25;;;;;;;4.32;1.95;;;18.00;40.50;;;;;;5050766;28;20021;-82
2021/04/16 14:37:51;;;;;;;5.13;2.35;;;18.00;40.50;;;;;;5050340;28;20052;-83
2021/04/16 14:40:18;;;;;;;4.30;2.08;;;17.90;40.60;;;;;;5050490;28;20032;-83
2021/04/16 14:42:45;;;;;;;6.70;2.47;;;17.80;40.60;;;;;;5049684;28;20117;-83
2021/04/16 14:45:17;;;;;;;5.28;1.73;;;17.80;40.90;;;;;;5050766;28;20063;-86
2021/04/16 14:47:43;;;;;;;5.07;2.63;;;17.90;41.10;;;;;;5049568;28;20498;-84
2021/04/16 14:50:11;;;;;;;7.80;2.60;;;18.00;41.00;;;;;;5051819;28;20033;-85
2021/04/16 14:52:37;;;;;;;6.57;2.35;;;18.10;41.00;;;;;;5050690;28;20043;-83
2021/04/16 14:55:20;;;;;;;8.57;3.97;;;18.20;40.80;;;;;;5050497;28;20032;-82
2021/04/16 14:57:46;;;;;;;8.00;3.10;;;18.30;40.50;;;;;;5049878;28;20063;-85
2021/04/16 15:00:18;;;;;;;8.70;3.10;;;18.50;40.60;;;;;;5017332;28;20028;-82
2021/04/16 15:02:44;;;;;;;7.80;2.70;;;18.70;40.30;;;;;;5050978;28;20025;-79
2021/04/16 15:05:10;;;;;;;8.23;3.10;;;18.80;40.10;;;;;;5032475;28;20128;-85
2021/04/16 15:07:53;;;;;;;7.78;2.92;;;18.60;40.10;;;;;;5050249;28;20025;-85
2021/04/16 15:10:25;;;;;;;6.40;3.65;;;18.50;40.00;;;;;;5050238;28;20419;-84
2021/04/16 15:12:51;;;;;;;9.23;3.55;;;18.40;39.90;;;;;;5048699;28;20032;-85
2021/04/16 15:15:37;;;;;;;8.30;3.15;;;18.20;40.00;;;;;;5047713;28;20340;-83